Time;durP1;ratioP1;P1;durP2;ratioP2;P2;SDS_P1;SDS_P2;PMS_P1;PMS_P2;Temp;Humidity;BMP_temperature;BMP_pressure;BME280_temperature;BME280_humidity;BME280_pressure;Samples;Min_cycle;Max_cycle;Signal;HPM_P1;HPM_P2
2021/11/22 00:02:17;;;;;;;8.82;2.97;;;0.60;99.90;;;;;;5033290;28;20499;-72
2021/11/22 00:04:43;;;;;;;6.28;2.58;;;0.50;99.90;;;;;;5033348;28;20021;-72
2021/11/22 00:07:11;;;;;;;6.32;3.25;;;0.40;99.90;;;;;;5033492;28;20033;-71
2021/11/22 00:09:37;;;;;;;6.88;3.60;;;0.40;99.90;;;;;;4995902;28;20554;-71
2021/11/22 00:12:04;;;;;;;9.57;2.60;;;0.40;99.90;;;;;;4995326;28;20033;-71
2021/11/22 00:14:29;;;;;;;9.18;2.97;;;0.40;99.90;;;;;;5013370;28;20493;-71
2021/11/22 00:16:55;;;;;;;10.63;3.00;;;0.40;99.90;;;;;;5013444;28;20032;-71
2021/11/22 00:19:20;;;;;;;10.05;3.28;;;0.40;99.90;;;;;;5011667;28;20022;-71
2021/11/22 00:21:46;;;;;;;6.00;2.17;;;0.30;99.90;;;;;;5013358;28;20029;-72
2021/11/22 00:24:12;;;;;;;9.82;2.80;;;0.20;99.90;;;;;;5025724;28;20036;-72
2021/11/22 00:26:37;;;;;;;6.72;2.80;;;0.10;99.90;;;;;;5033274;28;20140;-71
2021/11/22 00:29:03;;;;;;;10.18;3.00;;;0.20;99.90;;;;;;5023461;28;20026;-72
2021/11/22 00:31:29;;;;;;;8.73;2.85;;;0.30;99.90;;;;;;5012745;28;20029;-71
2021/11/22 00:33:55;;;;;;;12.70;4.43;;;0.40;99.90;;;;;;5018087;28;20021;-71
2021/11/22 00:36:22;;;;;;;10.32;3.28;;;0.40;99.90;;;;;;5037121;28;20052;-71
2021/11/22 00:38:47;;;;;;;7.72;3.17;;;0.40;99.90;;;;;;5037321;28;20057;-72
2021/11/22 00:41:13;;;;;;;12.68;3.33;;;0.50;99.90;;;;;;5020564;28;20119;-71
2021/11/22 00:43:39;;;;;;;7.47;3.50;;;0.50;99.90;;;;;;5017191;28;20041;-71
2021/11/22 00:46:04;;;;;;;11.82;3.10;;;0.40;99.90;;;;;;5017039;28;20081;-71
2021/11/22 00:48:31;;;;;;;6.22;3.47;;;0.30;99.90;;;;;;5017080;28;20034;-71
2021/11/22 00:50:56;;;;;;;11.40;3.33;;;0.20;99.90;;;;;;4998746;28;20026;-71
2021/11/22 00:53:22;;;;;;;10.43;3.00;;;0.10;99.90;;;;;;5017225;28;20072;-71
2021/11/22 00:55:48;;;;;;;16.23;3.03;;;0.00;99.90;;;;;;5016905;28;20080;-71
2021/11/22 00:58:14;;;;;;;16.88;3.50;;;0.00;99.90;;;;;;5016948;28;20049;-71
2021/11/22 01:00:40;;;;;;;11.57;3.30;;;0.10;99.90;;;;;;4998676;28;20107;-71
2021/11/22 01:03:06;;;;;;;10.13;3.25;;;0.10;99.90;;;;;;5016739;28;20076;-71
2021/11/22 01:05:32;;;;;;;10.07;3.28;;;0.10;99.90;;;;;;5016789;28;20026;-71
2021/11/22 01:07:58;;;;;;;10.75;3.75;;;0.10;99.90;;;;;;5016532;28;20029;-71
2021/11/22 01:10:23;;;;;;;12.50;3.05;;;0.10;99.90;;;;;;5015927;28;20034;-71
2021/11/22 01:12:50;;;;;;;6.13;3.08;;;0.10;99.90;;;;;;5016847;28;20026;-71
2021/11/22 01:15:19;;;;;;;11.68;3.47;;;0.00;99.90;;;;;;5016868;28;20452;-71
2021/11/22 01:17:47;;;;;;;9.00;3.55;;;0.00;99.90;;;;;;5022327;28;20079;-71
2021/11/22 01:20:16;;;;;;;4.25;2.65;;;-0.10;99.90;;;;;;5036274;28;20028;-71
2021/11/22 01:22:42;;;;;;;7.95;3.30;;;-0.20;99.90;;;;;;5031647;28;20025;-71
2021/11/22 01:25:10;;;;;;;5.75;3.15;;;-0.30;99.90;;;;;;5035590;28;20416;-71
2021/11/22 01:27:35;;;;;;;9.35;2.88;;;-0.20;99.90;;;;;;5021139;28;20447;-71
2021/11/22 01:30:05;;;;;;;6.43;2.78;;;-0.10;99.90;;;;;;5016562;28;20097;-71
2021/11/22 01:32:30;;;;;;;10.10;3.15;;;-0.10;99.90;;;;;;5016196;28;20030;-71
2021/11/22 01:34:56;;;;;;;8.52;2.95;;;-0.10;99.90;;;;;;5015927;28;20515;-71
2021/11/22 01:37:21;;;;;;;8.63;3.42;;;-0.20;99.90;;;;;;5016681;28;20088;-71
2021/11/22 01:39:47;;;;;;;5.60;2.70;;;-0.30;99.90;;;;;;5014858;28;20396;-71
2021/11/22 01:42:13;;;;;;;13.02;3.22;;;-0.40;99.90;;;;;;4998387;28;20088;-71
2021/11/22 01:44:39;;;;;;;8.55;3.35;;;-0.50;99.90;;;;;;5016086;28;20480;-71
2021/11/22 01:47:04;;;;;;;4.82;2.20;;;-0.60;99.90;;;;;;5015714;28;20121;-71
2021/11/22 01:49:30;;;;;;;7.75;2.45;;;-0.70;99.90;;;;;;5015470;28;20048;-71
2021/11/22 01:51:55;;;;;;;6.93;2.67;;;-0.80;99.90;;;;;;5015719;28;20436;-71
2021/11/22 01:54:21;;;;;;;11.45;3.30;;;-0.90;99.90;;;;;;5015638;28;20022;-71
2021/11/22 01:56:47;;;;;;;4.85;2.50;;;-0.90;99.90;;;;;;5015054;28;20021;-71
2021/11/22 01:59:17;;;;;;;5.78;3.33;;;-1.00;99.90;;;;;;5015811;28;20397;-71
2021/11/22 02:01:44;;;;;;;9.18;2.63;;;-1.00;99.90;;;;;;5015779;28;20037;-71
2021/11/22 02:04:10;;;;;;;5.80;2.63;;;-1.10;99.90;;;;;;5015735;28;20022;-72
2021/11/22 02:06:36;;;;;;;9.70;2.97;;;-1.10;99.90;;;;;;5015833;28;20224;-71
2021/11/22 02:09:04;;;;;;;7.10;2.75;;;-1.20;99.90;;;;;;5015097;28;20022;-71
2021/11/22 02:11:30;;;;;;;3.42;2.38;;;-1.20;99.90;;;;;;5015468;28;20018;-71
2021/11/22 02:13:56;;;;;;;8.77;2.47;;;-1.20;99.90;;;;;;5015791;28;20438;-71
2021/11/22 02:16:21;;;;;;;7.00;3.17;;;-1.20;99.90;;;;;;5015765;28;20116;-71
2021/11/22 02:18:47;;;;;;;5.57;2.90;;;-1.30;99.90;;;;;;5015548;28;20030;-71
2021/11/22 02:21:14;;;;;;;7.18;2.75;;;-1.30;99.90;;;;;;5014964;28;20496;-71
2021/11/22 02:23:40;;;;;;;5.15;2.78;;;-1.30;99.90;;;;;;5025602;28;20480;-71
2021/11/22 02:26:06;;;;;;;6.38;2.63;;;-1.30;99.90;;;;;;5035265;28;20041;-71
2021/11/22 02:28:32;;;;;;;5.50;2.78;;;-1.40;99.90;;;;;;5030704;28;20131;-71
2021/11/22 02:30:58;;;;;;;3.90;2.85;;;-1.30;99.90;;;;;;5034909;28;20040;-71
2021/11/22 02:33:24;;;;;;;4.63;2.72;;;-1.40;99.90;;;;;;5034930;28;20032;-71
2021/11/22 02:35:55;;;;;;;9.93;3.33;;;-1.40;99.90;;;;;;5034616;28;20022;-71
2021/11/22 02:38:24;;;;;;;6.65;3.20;;;-1.40;99.90;;;;;;5014995;28;20018;-71
2021/11/22 02:40:49;;;;;;;17.48;3.55;;;-1.20;99.90;;;;;;5014793;28;20485;-71
2021/11/22 02:43:15;;;;;;;6.82;3.08;;;-1.20;99.90;;;;;;5014874;28;20108;-71
2021/11/22 02:45:41;;;;;;;15.57;2.90;;;-1.30;99.90;;;;;;5014298;28;20018;-71
2021/11/22 02:48:07;;;;;;;12.65;3.38;;;-1.40;99.90;;;;;;5014878;28;20044;-71
2021/11/22 02:50:33;;;;;;;6.40;3.35;;;-1.50;99.90;;;;;;5015090;28;20088;-71
2021/11/22 02:52:59;;;;;;;6.15;3.20;;;-1.50;99.90;;;;;;5013358;28;20061;-71
2021/11/22 02:55:25;;;;;;;15.43;4.03;;;-1.50;99.90;;;;;;5014367;28;20485;-71
2021/11/22 02:57:51;;;;;;;10.73;4.10;;;-1.40;99.90;;;;;;5016043;28;20034;-71
2021/11/22 03:00:27;;;;;;;13.73;4.43;;;-1.20;99.90;;;;;;5014612;28;20033;-71
2021/11/22 03:02:54;;;;;;;8.20;3.00;;;-1.00;99.90;;;;;;5020504;28;20040;-71
2021/11/22 03:05:21;;;;;;;9.35;3.00;;;-1.00;99.90;;;;;;5033763;28;20035;-71
2021/11/22 03:07:49;;;;;;;9.95;3.67;;;-1.10;99.90;;;;;;5031408;28;20026;-71
2021/11/22 03:10:17;;;;;;;7.43;2.95;;;-1.20;99.90;;;;;;5014458;28;20045;-71
2021/11/22 03:12:43;;;;;;;11.82;3.65;;;-1.30;99.90;;;;;;5013831;28;20022;-71
2021/11/22 03:15:12;;;;;;;12.68;4.25;;;-1.30;99.90;;;;;;5033148;28;20022;-71
2021/11/22 03:17:38;;;;;;;10.70;3.65;;;-1.20;99.90;;;;;;5027782;28;20036;-71
2021/11/22 03:20:06;;;;;;;6.55;3.20;;;-1.00;99.90;;;;;;4996693;28;20099;-71
2021/11/22 03:22:32;;;;;;;10.93;3.53;;;-0.90;99.90;;;;;;5013626;28;20061;-71
2021/11/22 03:24:57;;;;;;;11.75;3.25;;;-0.90;99.90;;;;;;5014620;28;20060;-71
2021/11/22 03:27:24;;;;;;;8.60;3.38;;;-1.00;99.90;;;;;;5016744;28;20026;-71
2021/11/22 03:29:49;;;;;;;9.85;3.13;;;-1.10;99.90;;;;;;5013591;28;20025;-71
2021/11/22 03:32:15;;;;;;;7.72;2.63;;;-1.30;99.90;;;;;;5017064;28;20393;-71
2021/11/22 03:34:40;;;;;;;6.68;3.28;;;-1.40;99.90;;;;;;5033809;28;20480;-72
2021/11/22 03:37:07;;;;;;;7.10;3.00;;;-1.50;99.90;;;;;;5033751;28;20514;-71
2021/11/22 03:39:34;;;;;;;10.75;3.40;;;-1.60;99.90;;;;;;4996563;28;20113;-70
2021/11/22 03:42:03;;;;;;;10.48;2.78;;;-1.70;99.90;;;;;;4995763;28;20037;-71
2021/11/22 03:44:31;;;;;;;6.47;2.90;;;-1.70;99.90;;;;;;5013872;28;20021;-71
2021/11/22 03:46:57;;;;;;;13.60;3.50;;;-1.70;99.90;;;;;;5013776;28;20104;-70
2021/11/22 03:49:23;;;;;;;13.20;3.83;;;-1.50;99.90;;;;;;5014130;28;20101;-70
2021/11/22 03:51:49;;;;;;;5.55;2.95;;;-1.40;99.90;;;;;;5013600;28;20460;-70
2021/11/22 03:54:16;;;;;;;14.63;3.70;;;-1.40;99.90;;;;;;5013414;28;20026;-70
2021/11/22 03:56:42;;;;;;;13.32;3.72;;;-1.50;99.90;;;;;;5013727;28;20026;-71
2021/11/22 03:59:08;;;;;;;5.32;3.22;;;-1.50;99.90;;;;;;5013864;28;20022;-70
2021/11/22 04:01:35;;;;;;;9.65;3.63;;;-1.60;99.90;;;;;;5013826;28;20409;-70
2021/11/22 04:04:01;;;;;;;13.45;5.05;;;-1.60;99.90;;;;;;5014143;28;20113;-70
2021/11/22 04:06:27;;;;;;;13.85;5.07;;;-1.50;99.90;;;;;;5013514;28;20029;-70
2021/11/22 04:08:52;;;;;;;15.48;7.28;;;-1.50;99.90;;;;;;5012891;28;20499;-70
2021/11/22 04:11:18;;;;;;;25.75;9.95;;;-1.60;99.90;;;;;;5013474;28;20022;-71
2021/11/22 04:13:44;;;;;;;20.42;8.38;;;-1.60;99.90;;;;;;5013766;28;20033;-71
2021/11/22 04:16:10;;;;;;;21.25;6.47;;;-1.70;99.90;;;;;;5013773;28;20436;-70
2021/11/22 04:18:36;;;;;;;12.57;6.18;;;-1.70;99.90;;;;;;5013670;28;20127;-70
2021/11/22 04:21:02;;;;;;;11.95;5.30;;;-1.70;99.90;;;;;;5013068;28;20049;-70
2021/11/22 04:23:28;;;;;;;14.52;4.28;;;-1.80;99.90;;;;;;5013386;28;20108;-70
2021/11/22 04:25:54;;;;;;;11.10;4.82;;;-1.80;99.90;;;;;;5013577;28;20037;-70
2021/11/22 04:28:19;;;;;;;12.13;4.05;;;-1.90;99.90;;;;;;5013349;28;20101;-70
2021/11/22 04:30:45;;;;;;;6.10;2.97;;;-2.00;99.90;;;;;;5013159;28;20029;-70
2021/11/22 04:33:11;;;;;;;8.05;3.40;;;-2.00;99.90;;;;;;5013258;28;20366;-70
2021/11/22 04:35:37;;;;;;;12.57;3.38;;;-2.00;99.90;;;;;;5013854;28;20076;-70
2021/11/22 04:38:04;;;;;;;8.27;3.17;;;-2.00;99.90;;;;;;5013538;28;20539;-70
2021/11/22 04:40:30;;;;;;;7.32;3.78;;;-2.00;99.90;;;;;;5013526;28;20114;-70
2021/11/22 04:42:56;;;;;;;7.53;3.15;;;-2.00;99.90;;;;;;5012605;28;20030;-70
2021/11/22 04:45:28;;;;;;;7.15;3.10;;;-2.10;99.90;;;;;;5013477;28;20033;-70
2021/11/22 04:47:54;;;;;;;6.85;3.08;;;-2.10;99.90;;;;;;5012864;28;20029;-70
2021/11/22 04:50:20;;;;;;;6.18;2.47;;;-2.10;99.90;;;;;;5013345;28;20030;-70
2021/11/22 04:52:48;;;;;;;4.90;2.92;;;-2.10;99.90;;;;;;5012826;28;20122;-70
2021/11/22 04:55:16;;;;;;;6.30;3.05;;;-2.10;99.90;;;;;;4995219;28;20045;-70
2021/11/22 04:57:43;;;;;;;5.63;2.95;;;-2.10;99.90;;;;;;5013393;28;20448;-70
2021/11/22 05:00:11;;;;;;;8.77;3.60;;;-2.10;99.90;;;;;;5013036;28;20022;-70
2021/11/22 05:02:39;;;;;;;7.10;2.90;;;-2.10;99.90;;;;;;5012958;28;20509;-70
2021/11/22 05:05:06;;;;;;;5.40;3.35;;;-2.10;99.90;;;;;;4995220;28;20072;-70
2021/11/22 05:07:31;;;;;;;7.72;3.00;;;-2.10;99.90;;;;;;5012790;28;20084;-70
2021/11/22 05:09:57;;;;;;;3.50;2.83;;;-2.10;99.90;;;;;;5013002;28;20034;-70
2021/11/22 05:12:22;;;;;;;14.15;4.35;;;-2.10;99.90;;;;;;5012953;28;20025;-70
2021/11/22 05:14:48;;;;;;;11.50;3.47;;;-2.10;99.90;;;;;;5012897;28;20030;-70
2021/11/22 05:17:14;;;;;;;8.73;3.42;;;-2.00;99.90;;;;;;5012897;28;20481;-70
2021/11/22 05:19:40;;;;;;;9.65;4.95;;;-2.00;99.90;;;;;;5012356;28;20105;-70
2021/11/22 05:22:05;;;;;;;9.30;4.43;;;-2.00;99.90;;;;;;4998442;28;20485;-70
2021/11/22 05:24:31;;;;;;;9.80;3.60;;;-2.00;99.90;;;;;;5016465;28;20034;-70
2021/11/22 05:27:01;;;;;;;5.35;3.13;;;-1.90;99.90;;;;;;5016359;28;20033;-70
2021/11/22 05:29:27;;;;;;;5.40;2.58;;;-1.90;99.90;;;;;;5016066;28;20037;-70
2021/11/22 05:31:53;;;;;;;10.30;3.75;;;-2.00;99.90;;;;;;5016568;28;20404;-70
2021/11/22 05:34:19;;;;;;;16.08;3.42;;;-2.00;99.90;;;;;;5016258;28;20022;-70
2021/11/22 05:36:45;;;;;;;7.95;3.42;;;-2.00;99.90;;;;;;5014978;28;20030;-70
2021/11/22 05:39:11;;;;;;;7.18;3.47;;;-2.00;99.90;;;;;;5016058;28;20033;-70
2021/11/22 05:41:37;;;;;;;5.03;3.25;;;-2.10;99.90;;;;;;5016326;28;20025;-70
2021/11/22 05:44:03;;;;;;;8.02;3.38;;;-2.10;99.90;;;;;;5015543;28;20408;-70
2021/11/22 05:46:28;;;;;;;8.13;3.53;;;-2.10;99.90;;;;;;5015925;28;20030;-70
2021/11/22 05:48:54;;;;;;;6.70;3.42;;;-2.20;99.90;;;;;;4998378;28;20473;-70
2021/11/22 05:53:48;;;;;;;6.00;2.95;;;-2.20;99.90;;;;;;5056975;23;20049;-67
2021/11/22 05:56:17;;;;;;;5.32;2.90;;;-2.20;99.90;;;;;;5035376;28;20040;-67
2021/11/22 05:58:42;;;;;;;11.57;4.07;;;-2.10;99.90;;;;;;5035578;28;20048;-67
2021/11/22 06:01:08;;;;;;;7.22;4.20;;;-2.00;99.90;;;;;;5035756;28;20473;-66
2021/11/22 06:03:34;;;;;;;15.45;6.53;;;-1.90;99.90;;;;;;5035515;28;20631;-66
2021/11/22 06:06:00;;;;;;;18.98;7.88;;;-1.90;99.90;;;;;;5035401;28;20029;-66
2021/11/22 06:08:26;;;;;;;10.68;6.40;;;-1.90;99.90;;;;;;5034973;28;20053;-66
2021/11/22 06:10:53;;;;;;;12.85;6.60;;;-1.90;99.90;;;;;;5035383;28;20099;-66
2021/11/22 06:13:19;;;;;;;12.52;4.80;;;-2.00;99.90;;;;;;5035201;28;20027;-67
2021/11/22 06:15:46;;;;;;;16.23;5.00;;;-2.00;99.90;;;;;;5035296;28;20387;-67
2021/11/22 06:18:13;;;;;;;12.77;4.82;;;-1.90;99.90;;;;;;5034925;28;20045;-66
2021/11/22 06:20:39;;;;;;;12.05;3.90;;;-1.70;99.90;;;;;;5035404;28;20036;-67
2021/11/22 06:23:05;;;;;;;15.38;5.05;;;-1.60;99.90;;;;;;5035063;28;20021;-66
2021/11/22 06:25:31;;;;;;;9.15;4.68;;;-1.40;99.90;;;;;;5035356;28;20021;-67
2021/11/22 06:27:58;;;;;;;14.18;4.53;;;-1.30;99.90;;;;;;5034951;28;20025;-67
2021/11/22 06:30:24;;;;;;;11.68;4.35;;;-1.30;99.90;;;;;;5035025;28;20214;-66
2021/11/22 06:32:51;;;;;;;9.40;4.55;;;-1.30;99.90;;;;;;5033294;28;20076;-66
2021/11/22 06:35:18;;;;;;;7.57;4.25;;;-1.30;99.90;;;;;;5034909;28;20025;-67
2021/11/22 06:37:44;;;;;;;10.85;4.10;;;-1.30;99.90;;;;;;5034832;28;20135;-67
2021/11/22 06:40:11;;;;;;;4.75;3.53;;;-1.40;99.90;;;;;;5034795;28;20029;-67
2021/11/22 06:42:37;;;;;;;26.40;5.32;;;-1.50;99.90;;;;;;5034071;28;20033;-66
2021/11/22 06:45:04;;;;;;;8.85;4.18;;;-1.50;99.90;;;;;;5034632;28;20100;-66
2021/11/22 06:47:31;;;;;;;7.32;3.65;;;-1.50;99.90;;;;;;5034720;28;20033;-67
2021/11/22 06:49:57;;;;;;;11.00;4.07;;;-1.50;99.90;;;;;;5034598;28;20078;-67
2021/11/22 06:52:22;;;;;;;7.22;3.63;;;-1.40;99.90;;;;;;5034310;28;20069;-66
2021/11/22 06:54:49;;;;;;;9.45;3.83;;;-1.50;99.90;;;;;;5034738;28;20022;-66
2021/11/22 06:57:15;;;;;;;12.68;3.88;;;-1.50;99.90;;;;;;5033845;28;20558;-66
2021/11/22 06:59:42;;;;;;;6.65;3.45;;;-1.50;99.90;;;;;;5034697;28;20061;-66
2021/11/22 07:02:27;;;;;;;7.75;3.40;;;-1.50;99.90;;;;;;5034271;28;20566;-66
2021/11/22 07:04:53;;;;;;;10.77;3.70;;;-1.50;99.90;;;;;;5034395;28;20025;-66
2021/11/22 07:07:19;;;;;;;9.18;4.35;;;-1.50;99.90;;;;;;5034415;28;20076;-66
2021/11/22 07:09:46;;;;;;;8.77;4.50;;;-1.50;99.90;;;;;;5033972;28;20056;-66
2021/11/22 07:12:12;;;;;;;13.35;4.30;;;-1.50;99.90;;;;;;5033947;28;20477;-66
2021/11/22 07:14:39;;;;;;;11.18;4.60;;;-1.60;99.90;;;;;;5034432;28;20036;-66
2021/11/22 07:17:05;;;;;;;13.15;3.75;;;-1.60;99.90;;;;;;5034323;28;20500;-66
2021/11/22 07:19:31;;;;;;;12.90;3.63;;;-1.70;99.90;;;;;;5034124;28;20040;-66
2021/11/22 07:22:00;;;;;;;9.48;3.58;;;-1.70;99.90;;;;;;5033745;28;20029;-66
2021/11/22 07:24:26;;;;;;;19.67;4.65;;;-1.70;99.90;;;;;;5033932;28;20487;-67
2021/11/22 07:26:52;;;;;;;6.40;3.22;;;-1.70;99.90;;;;;;5033871;28;20025;-67
2021/11/22 07:29:18;;;;;;;10.07;5.22;;;-1.70;99.90;;;;;;5033819;28;20033;-67
2021/11/22 07:31:43;;;;;;;20.08;5.65;;;-1.70;99.90;;;;;;5015508;28;20022;-66
2021/11/22 07:34:09;;;;;;;8.43;4.13;;;-1.60;99.90;;;;;;5033730;28;20025;-66
2021/11/22 07:36:35;;;;;;;16.20;4.97;;;-1.40;99.90;;;;;;5034026;28;20036;-66
2021/11/22 07:39:00;;;;;;;10.75;3.65;;;-1.20;99.90;;;;;;5033702;28;20033;-66
2021/11/22 07:41:26;;;;;;;7.60;3.97;;;-1.10;99.90;;;;;;5033100;28;20100;-66
2021/11/22 07:43:52;;;;;;;9.85;3.90;;;-1.00;99.90;;;;;;5033716;28;20039;-66
2021/11/22 07:46:18;;;;;;;10.35;4.18;;;-0.90;99.90;;;;;;5033536;28;20033;-66
2021/11/22 07:48:43;;;;;;;14.98;3.83;;;-0.90;99.90;;;;;;5033582;28;20029;-66
2021/11/22 07:51:10;;;;;;;11.02;3.60;;;-0.90;99.90;;;;;;5033799;28;20037;-66
2021/11/22 07:53:37;;;;;;;7.95;4.15;;;-0.90;99.90;;;;;;5032742;28;20033;-66
2021/11/22 07:56:04;;;;;;;17.27;4.43;;;-0.80;99.90;;;;;;5033994;28;20396;-66
2021/11/22 07:58:30;;;;;;;9.65;4.32;;;-0.60;99.90;;;;;;5033353;28;20388;-66
2021/11/22 08:00:55;;;;;;;12.20;4.60;;;-0.50;99.90;;;;;;5033402;28;20025;-66
2021/11/22 08:03:21;;;;;;;9.30;4.63;;;-0.30;99.90;;;;;;5032704;28;20029;-66
2021/11/22 08:05:49;;;;;;;10.05;4.53;;;-0.10;99.90;;;;;;5033336;28;20028;-66
2021/11/22 08:08:16;;;;;;;15.65;5.28;;;0.00;99.90;;;;;;5015585;28;20484;-66
2021/11/22 08:10:46;;;;;;;7.90;4.45;;;0.20;99.90;;;;;;5033531;28;20026;-67
2021/11/22 08:13:12;;;;;;;12.80;5.10;;;0.30;99.90;;;;;;5033466;28;20021;-66
2021/11/22 08:15:38;;;;;;;14.10;5.18;;;0.40;99.90;;;;;;5032663;28;20384;-66
2021/11/22 08:18:07;;;;;;;12.52;4.45;;;0.50;99.90;;;;;;5033170;28;20053;-66
2021/11/22 08:20:34;;;;;;;20.70;4.88;;;0.40;99.90;;;;;;5033418;28;20086;-67
2021/11/22 08:23:00;;;;;;;12.63;5.20;;;0.40;99.90;;;;;;5032935;28;20045;-66
2021/11/22 08:25:28;;;;;;;22.00;5.22;;;0.40;99.90;;;;;;5032558;28;20021;-66
2021/11/22 08:27:55;;;;;;;7.32;3.88;;;0.40;99.90;;;;;;5032645;28;20040;-67
2021/11/22 08:30:23;;;;;;;11.32;4.30;;;0.40;99.90;;;;;;5033270;28;20117;-66
2021/11/22 08:32:51;;;;;;;11.80;4.28;;;0.40;99.90;;;;;;5033261;28;20049;-67
2021/11/22 08:35:18;;;;;;;7.57;4.00;;;0.40;99.90;;;;;;5033049;28;20064;-66
2021/11/22 08:37:44;;;;;;;6.07;3.53;;;0.40;99.90;;;;;;5032762;28;20087;-66
2021/11/22 08:40:14;;;;;;;12.85;4.28;;;0.50;99.90;;;;;;5032935;28;20092;-66
2021/11/22 08:42:40;;;;;;;6.25;3.53;;;0.60;99.90;;;;;;5033117;28;20032;-66
2021/11/22 08:45:07;;;;;;;15.00;4.55;;;0.70;99.90;;;;;;5032995;28;20021;-66
2021/11/22 08:47:32;;;;;;;14.73;4.50;;;0.90;99.90;;;;;;5032834;28;20026;-67
2021/11/22 08:49:58;;;;;;;16.38;5.28;;;1.00;99.90;;;;;;5032429;28;20049;-67
2021/11/22 08:52:24;;;;;;;14.95;4.82;;;1.10;99.90;;;;;;5032647;28;20048;-67
2021/11/22 08:54:50;;;;;;;8.13;4.30;;;1.10;99.90;;;;;;5033100;28;20022;-67
2021/11/22 08:57:17;;;;;;;12.32;4.57;;;1.20;99.90;;;;;;5036668;28;20567;-67
2021/11/22 08:59:43;;;;;;;10.80;4.03;;;1.40;99.90;;;;;;5036168;28;20156;-66
2021/11/22 09:02:10;;;;;;;9.07;4.93;;;1.50;99.90;;;;;;5036827;28;20030;-67
2021/11/22 09:04:36;;;;;;;12.00;3.88;;;1.70;99.90;;;;;;5036720;28;20017;-67
2021/11/22 09:07:01;;;;;;;10.43;5.18;;;1.90;99.90;;;;;;5036484;28;20091;-67
2021/11/22 09:09:27;;;;;;;10.30;4.20;;;2.00;99.90;;;;;;5036537;28;20028;-67
2021/11/22 09:11:53;;;;;;;8.10;4.32;;;2.10;99.90;;;;;;5036456;28;20539;-66
2021/11/22 09:14:18;;;;;;;10.80;4.40;;;2.10;99.90;;;;;;5036157;28;20080;-67
2021/11/22 09:16:44;;;;;;;11.90;4.15;;;2.10;99.90;;;;;;5036658;28;20033;-67
2021/11/22 09:19:10;;;;;;;8.23;3.92;;;2.10;99.90;;;;;;5036375;28;20034;-67
2021/11/22 09:21:36;;;;;;;9.52;3.60;;;2.00;99.90;;;;;;5036553;28;20436;-67
2021/11/22 09:24:03;;;;;;;7.80;3.72;;;1.90;99.90;;;;;;5036484;28;20100;-67
2021/11/22 09:26:30;;;;;;;9.20;4.05;;;1.90;99.90;;;;;;5035588;28;20029;-66
2021/11/22 09:28:56;;;;;;;10.40;4.85;;;1.90;99.90;;;;;;5036413;28;20026;-67
2021/11/22 09:31:22;;;;;;;16.98;4.80;;;2.00;99.90;;;;;;5036347;28;20029;-67
2021/11/22 09:33:50;;;;;;;10.93;5.38;;;2.20;99.90;;;;;;5036075;28;20546;-67
2021/11/22 09:36:16;;;;;;;15.65;6.18;;;2.40;99.90;;;;;;5036078;28;20192;-67
2021/11/22 09:38:42;;;;;;;8.45;5.70;;;2.60;99.90;;;;;;5036545;28;20472;-67
2021/11/22 09:41:09;;;;;;;9.80;5.80;;;2.70;99.90;;;;;;5035250;28;20392;-67
2021/11/22 09:43:35;;;;;;;18.17;4.95;;;3.00;99.90;;;;;;5036064;28;20029;-66
2021/11/22 09:46:01;;;;;;;11.25;5.85;;;3.10;99.90;;;;;;5035514;28;20026;-67
2021/11/22 09:48:27;;;;;;;13.73;4.10;;;3.00;99.90;;;;;;5035783;28;20032;-67
2021/11/22 09:50:54;;;;;;;11.88;4.85;;;2.90;99.90;;;;;;5036310;28;20022;-66
2021/11/22 09:53:20;;;;;;;10.80;4.72;;;3.00;99.90;;;;;;5034964;28;20124;-66
2021/11/22 09:55:46;;;;;;;9.30;4.10;;;2.90;99.90;;;;;;5035904;28;20109;-67
2021/11/22 09:58:12;;;;;;;15.38;4.22;;;3.00;99.90;;;;;;5035633;28;20060;-67
2021/11/22 10:00:43;;;;;;;13.73;4.38;;;3.10;99.90;;;;;;5035836;28;20052;-66
2021/11/22 10:03:11;;;;;;;15.23;4.55;;;3.10;99.90;;;;;;5035498;28;20025;-66
2021/11/22 10:05:38;;;;;;;10.73;4.20;;;3.10;99.90;;;;;;5035199;28;20025;-66
2021/11/22 10:08:10;;;;;;;14.95;3.97;;;3.10;99.90;;;;;;5035202;28;20026;-67
2021/11/22 10:10:42;;;;;;;17.15;4.80;;;3.00;99.90;;;;;;5035647;28;20109;-66
2021/11/22 10:13:22;;;;;;;8.20;4.03;;;3.00;99.90;;;;;;5035302;28;20417;-66
2021/11/22 10:15:49;;;;;;;10.20;4.35;;;3.00;99.90;;;;;;5035001;28;20113;-67
2021/11/22 10:18:23;;;;;;;15.82;4.43;;;3.10;99.90;;;;;;5035162;28;20484;-67
2021/11/22 10:20:51;;;;;;;11.25;4.30;;;3.20;99.90;;;;;;5035470;28;20025;-67
2021/11/22 10:23:26;;;;;;;10.68;4.50;;;3.40;99.90;;;;;;5035049;28;20060;-67
2021/11/22 10:25:54;;;;;;;8.20;4.57;;;3.50;99.90;;;;;;5034580;28;20489;-67
2021/11/22 10:28:26;;;;;;;10.35;4.30;;;3.60;99.90;;;;;;5035324;28;20060;-67
2021/11/22 10:30:55;;;;;;;14.50;4.63;;;3.70;99.90;;;;;;5034970;28;20068;-67
2021/11/22 10:33:24;;;;;;;13.18;5.43;;;3.90;99.90;;;;;;5034316;28;20480;-67
2021/11/22 10:35:53;;;;;;;19.90;4.20;;;4.00;99.90;;;;;;5035150;28;20380;-67
2021/11/22 10:38:25;;;;;;;15.05;4.78;;;4.10;99.90;;;;;;5034887;28;20099;-67
2021/11/22 10:40:55;;;;;;;12.38;4.30;;;4.20;99.90;;;;;;5034787;28;20029;-67
2021/11/22 10:43:20;;;;;;;9.77;4.07;;;4.30;99.90;;;;;;5034949;28;20397;-67
2021/11/22 10:45:49;;;;;;;11.10;3.63;;;4.50;99.90;;;;;;5034416;28;20026;-67
2021/11/22 10:48:33;;;;;;;12.80;3.60;;;4.60;99.90;;;;;;5034873;28;20369;-67
2021/11/22 10:51:11;;;;;;;6.15;3.08;;;4.80;99.90;;;;;;5034932;28;20022;-67
2021/11/22 10:53:39;;;;;;;12.55;3.28;;;5.00;99.90;;;;;;5034429;28;20112;-67
2021/11/22 10:56:09;;;;;;;13.65;3.75;;;5.10;99.90;;;;;;5034083;28;20044;-67
2021/11/22 10:58:47;;;;;;;7.93;3.70;;;5.20;99.90;;;;;;5034470;28;20029;-67
2021/11/22 11:01:32;;;;;;;9.38;2.35;;;5.30;99.90;;;;;;5034775;28;20083;-67
2021/11/22 11:04:18;;;;;;;9.43;1.88;;;5.50;99.90;;;;;;5034683;28;20021;-67
2021/11/22 11:06:53;;;;;;;20.17;2.63;;;5.60;99.90;;;;;;5033206;28;20098;-67
2021/11/22 11:09:19;;;;;;;7.13;2.75;;;5.70;99.90;;;;;;5034382;28;20480;-67
2021/11/22 11:11:51;;;;;;;6.22;2.00;;;5.90;99.90;;;;;;5034425;28;20026;-67
2021/11/22 11:14:17;;;;;;;15.50;1.63;;;6.00;99.90;;;;;;5033839;28;20025;-67
2021/11/22 11:16:44;;;;;;;9.90;2.20;;;6.10;99.90;;;;;;5034400;28;20591;-67
2021/11/22 11:19:14;;;;;;;11.10;1.77;;;6.20;99.90;;;;;;5033874;28;20476;-67
2021/11/22 11:21:43;;;;;;;8.43;2.03;;;6.40;99.90;;;;;;5033936;28;20503;-67
2021/11/22 11:24:10;;;;;;;13.00;1.88;;;6.60;99.90;;;;;;5033571;28;20389;-67
2021/11/22 11:26:37;;;;;;;4.65;1.63;;;6.70;99.90;;;;;;5034119;28;20025;-67
2021/11/22 11:29:04;;;;;;;11.60;1.50;;;6.90;99.90;;;;;;5033749;28;20025;-67
2021/11/22 11:31:30;;;;;;;7.72;2.05;;;6.90;99.90;;;;;;5033846;28;20091;-67
2021/11/22 11:33:57;;;;;;;5.70;1.42;;;7.00;99.90;;;;;;5033273;28;20022;-67
2021/11/22 11:36:47;;;;;;;7.47;1.50;;;7.10;99.90;;;;;;5033830;28;20041;-67
2021/11/22 11:39:50;;;;;;;6.35;1.35;;;7.10;99.90;;;;;;5034077;28;20055;-67
2021/11/22 11:42:36;;;;;;;9.20;1.52;;;7.20;99.90;;;;;;5033661;28;20041;-67
2021/11/22 11:45:15;;;;;;;6.05;1.42;;;7.30;99.90;;;;;;5033189;28;20025;-67
2021/11/22 11:48:16;;;;;;;14.27;1.40;;;7.30;99.90;;;;;;5033828;28;20054;-67
2021/11/22 11:50:45;;;;;;;11.00;1.58;;;7.40;99.90;;;;;;5033657;28;20512;-67
2021/11/22 11:53:18;;;;;;;4.43;1.27;;;7.50;99.90;;;;;;5032898;28;20105;-67
2021/11/22 11:56:04;;;;;;;9.75;1.38;;;7.60;99.90;;;;;;5033810;28;20036;-67
2021/11/22 11:58:29;;;;;;;9.57;1.40;;;7.70;99.90;;;;;;5033443;28;20024;-67
2021/11/22 12:01:01;;;;;;;13.05;1.73;;;7.80;99.90;;;;;;5033437;28;20021;-67
2021/11/22 12:03:30;;;;;;;11.60;1.90;;;7.90;99.90;;;;;;5033263;28;20026;-67
2021/11/22 12:05:58;;;;;;;8.38;1.27;;;8.00;99.90;;;;;;5032839;28;20018;-67
2021/11/22 12:08:27;;;;;;;5.72;1.48;;;8.00;99.90;;;;;;5033319;28;20033;-67
2021/11/22 12:10:58;;;;;;;11.98;1.90;;;8.10;99.90;;;;;;5033314;28;20547;-67
2021/11/22 12:13:43;;;;;;;17.38;2.15;;;8.10;99.90;;;;;;5032922;28;20039;-67
2021/11/22 12:16:09;;;;;;;11.75;3.60;;;8.10;99.90;;;;;;5033505;28;20022;-67
2021/11/22 12:18:35;;;;;;;3.55;1.40;;;8.20;99.90;;;;;;5033253;28;20044;-67
2021/11/22 12:21:20;;;;;;;5.40;1.35;;;8.30;99.90;;;;;;5033433;28;20469;-67
2021/11/22 12:23:54;;;;;;;15.90;1.58;;;8.40;99.90;;;;;;5032469;28;20112;-66
2021/11/22 12:26:35;;;;;;;7.35;1.70;;;8.50;99.90;;;;;;5033366;28;20096;-67
2021/11/22 12:29:03;;;;;;;4.75;1.80;;;8.60;99.90;;;;;;5033247;28;20029;-67
2021/11/22 12:31:32;;;;;;;9.25;1.77;;;8.80;99.90;;;;;;5035663;28;20022;-67
2021/11/22 12:34:04;;;;;;;10.98;1.35;;;9.00;99.90;;;;;;5036915;28;20079;-67
2021/11/22 12:36:33;;;;;;;7.22;1.20;;;9.10;99.90;;;;;;5037427;28;20029;-67
2021/11/22 12:39:05;;;;;;;6.07;1.08;;;9.20;99.90;;;;;;5037178;28;20369;-67
2021/11/22 12:41:33;;;;;;;6.15;1.73;;;9.30;99.90;;;;;;5019365;28;20029;-66
2021/11/22 12:44:00;;;;;;;6.97;1.27;;;9.40;99.90;;;;;;5036491;28;20481;-67
2021/11/22 12:46:35;;;;;;;7.68;1.17;;;9.10;99.90;;;;;;5037170;28;20117;-67
2021/11/22 12:49:02;;;;;;;13.73;2.42;;;9.20;99.90;;;;;;5036997;28;20152;-67
2021/11/22 12:51:43;;;;;;;13.25;1.90;;;9.30;99.90;;;;;;5036619;28;20441;-68